Time;durP1;ratioP1;P1;durP2;ratioP2;P2;SDS_P1;SDS_P2;PMS_P1;PMS_P2;Temp;Humidity;BMP_temperature;BMP_pressure;BME280_temperature;BME280_humidity;BME280_pressure;Samples;Min_cycle;Max_cycle;Signal;HPM_P1;HPM_P2
2022/03/13 00:00:27;;;;;;;13.02;7.78;;;;;;;4.80;73.69;101624.84;5054464;28;20385;-74
2022/03/13 00:02:55;;;;;;;12.98;7.25;;;;;;;4.71;74.34;101632.31;5057208;28;20028;-74
2022/03/13 00:05:21;;;;;;;11.18;6.72;;;;;;;4.64;74.62;101635.38;5056502;28;20024;-74
2022/03/13 00:07:48;;;;;;;14.77;7.82;;;;;;;4.59;74.03;101626.97;5055192;28;20021;-74
2022/03/13 00:10:24;;;;;;;12.05;7.05;;;;;;;4.53;74.82;101636.03;5054719;28;20389;-74
2022/03/13 00:12:49;;;;;;;13.95;8.02;;;;;;;4.47;74.69;101624.16;5062866;28;20074;-74
2022/03/13 00:15:21;;;;;;;13.82;8.07;;;;;;;4.32;75.22;101607.59;5062461;28;20028;-74
2022/03/13 00:17:46;;;;;;;12.05;7.55;;;;;;;4.43;74.93;101627.88;5053386;28;20021;-74
2022/03/13 00:20:12;;;;;;;14.25;8.18;;;;;;;4.36;74.58;101616.13;5054125;28;20036;-74
2022/03/13 00:22:38;;;;;;;13.07;7.30;;;;;;;4.38;74.71;101619.50;5059642;28;20102;-74
2022/03/13 00:25:10;;;;;;;11.63;6.65;;;;;;;4.33;74.94;101606.69;5054791;28;20048;-74
2022/03/13 00:27:36;;;;;;;17.13;7.85;;;;;;;4.36;74.55;101605.66;5060126;28;20053;-74
2022/03/13 00:30:04;;;;;;;14.38;7.88;;;;;;;4.49;73.51;101618.84;5057077;28;20096;-74
2022/03/13 00:32:30;;;;;;;12.98;6.95;;;;;;;4.49;73.71;101621.47;5066127;28;20029;-74
2022/03/13 00:34:55;;;;;;;13.23;7.40;;;;;;;4.47;73.06;101618.94;5044489;28;20036;-74
2022/03/13 00:37:21;;;;;;;12.23;6.88;;;;;;;4.32;73.52;101593.72;5060013;28;20033;-75
2022/03/13 00:39:49;;;;;;;12.60;8.38;;;;;;;4.38;73.73;101601.19;5044126;28;20361;-75
2022/03/13 00:42:15;;;;;;;9.05;5.65;;;;;;;4.35;73.68;101613.59;5057458;28;20033;-75
2022/03/13 00:44:41;;;;;;;13.43;7.45;;;;;;;4.29;73.30;101606.94;5064124;28;20021;-75
2022/03/13 00:47:07;;;;;;;16.60;6.97;;;;;;;4.33;73.57;101616.28;5053114;28;20025;-75
2022/03/13 00:49:33;;;;;;;15.65;7.03;;;;;;;4.28;73.66;101602.66;5062971;28;20437;-75
2022/03/13 00:52:00;;;;;;;12.18;7.47;;;;;;;4.10;73.63;101588.91;5053951;28;20024;-75
2022/03/13 00:54:25;;;;;;;10.75;5.60;;;;;;;4.23;73.10;101604.72;5061474;28;20044;-75
2022/03/13 00:56:50;;;;;;;13.85;7.25;;;;;;;4.22;73.09;101618.69;5056206;28;20486;-75
2022/03/13 00:59:16;;;;;;;10.35;5.40;;;;;;;4.13;73.31;101604.41;5060059;28;20032;-75
2022/03/13 01:01:41;;;;;;;8.93;6.53;;;;;;;4.10;73.09;101610.66;5053675;28;20028;-74
2022/03/13 01:04:07;;;;;;;12.23;7.07;;;;;;;4.03;73.43;101609.31;5058597;28;20035;-74
2022/03/13 01:06:32;;;;;;;13.18;7.60;;;;;;;3.91;73.51;101587.34;5061982;28;20021;-75
2022/03/13 01:08:57;;;;;;;11.20;6.00;;;;;;;4.00;72.79;101609.50;5053468;28;20477;-74
2022/03/13 01:11:23;;;;;;;16.10;7.85;;;;;;;3.98;73.39;101613.97;5056452;28;20028;-74
2022/03/13 01:13:49;;;;;;;12.30;7.55;;;;;;;3.94;74.04;101604.63;5058074;28;20140;-75
2022/03/13 01:16:27;;;;;;;13.95;6.95;;;;;;;3.87;74.44;101593.69;5059722;28;20021;-74
2022/03/13 01:18:55;;;;;;;9.27;5.82;;;;;;;3.92;74.15;101601.28;5055933;28;20477;-74
2022/03/13 01:21:21;;;;;;;14.25;6.40;;;;;;;3.92;74.49;101602.13;5057336;28;20021;-74
2022/03/13 01:23:59;;;;;;;11.05;7.03;;;;;;;3.97;73.94;101604.44;5054028;28;20071;-74
2022/03/13 01:26:24;;;;;;;13.85;7.35;;;;;;;3.97;73.76;101601.00;5057471;28;20026;-74
2022/03/13 01:28:58;;;;;;;7.85;4.78;;;;;;;3.93;73.61;101597.72;5062157;28;20376;-74
2022/03/13 01:31:26;;;;;;;15.27;7.45;;;;;;;3.86;73.34;101580.72;5063536;28;20025;-74
2022/03/13 01:33:51;;;;;;;10.15;6.43;;;;;;;3.91;73.71;101597.81;5039399;28;20028;-74
2022/03/13 01:36:17;;;;;;;11.45;6.65;;;;;;;3.91;73.61;101594.34;5056230;28;20055;-74
2022/03/13 01:38:42;;;;;;;10.32;6.65;;;;;;;3.90;74.19;101590.06;5061716;28;20064;-75
2022/03/13 01:41:08;;;;;;;12.40;6.75;;;;;;;3.91;73.55;101594.34;5056752;28;20029;-75
2022/03/13 01:43:34;;;;;;;12.20;7.47;;;;;;;3.85;73.72;101576.41;5062569;28;20103;-75
2022/03/13 01:46:01;;;;;;;12.45;7.03;;;;;;;3.78;74.44;101572.50;5056234;28;20035;-74
2022/03/13 01:48:27;;;;;;;12.43;6.70;;;;;;;3.90;74.29;101587.47;5044366;28;20032;-74
2022/03/13 01:50:54;;;;;;;13.13;6.80;;;;;;;3.92;75.27;101589.06;5058618;28;20108;-74
2022/03/13 01:53:21;;;;;;;12.02;6.60;;;;;;;3.82;74.56;101580.06;5055266;28;20032;-75
2022/03/13 01:55:54;;;;;;;11.35;6.47;;;;;;;3.87;74.41;101588.47;5055222;28;20028;-75
2022/03/13 01:58:19;;;;;;;13.55;6.93;;;;;;;3.87;74.61;101585.00;5057887;28;20029;-75
2022/03/13 02:00:46;;;;;;;12.30;7.15;;;;;;;3.85;75.10;101584.25;5065929;28;20496;-75
2022/03/13 02:03:12;;;;;;;11.88;7.22;;;;;;;3.73;74.60;101564.09;5061069;28;20063;-74
2022/03/13 02:05:37;;;;;;;15.98;7.28;;;;;;;3.81;75.44;101572.31;5063055;28;20101;-74
2022/03/13 02:08:12;;;;;;;11.85;7.50;;;;;;;3.81;75.69;101578.38;5059167;28;20664;-75
2022/03/13 02:10:38;;;;;;;9.07;6.45;;;;;;;3.66;75.65;101559.22;5057084;28;20056;-75
2022/03/13 02:13:04;;;;;;;14.05;7.93;;;;;;;3.75;75.25;101575.28;5058886;28;20476;-75
2022/03/13 02:15:31;;;;;;;13.00;7.28;;;;;;;3.81;75.84;101582.75;5062723;28;20115;-75
2022/03/13 02:18:00;;;;;;;12.32;6.63;;;;;;;3.84;74.87;101567.75;5059884;28;20538;-75
2022/03/13 02:20:26;;;;;;;15.68;7.97;;;;;;;3.87;74.77;101571.97;5056392;28;20418;-75
2022/03/13 02:22:59;;;;;;;12.57;6.78;;;;;;;3.86;74.72;101565.06;5064978;28;20480;-75
2022/03/13 02:25:25;;;;;;;11.82;7.55;;;;;;;3.87;75.45;101556.28;5038003;28;20049;-75
2022/03/13 02:27:51;;;;;;;13.60;7.18;;;;;;;3.90;75.57;101567.41;5062962;28;20154;-74
2022/03/13 02:30:24;;;;;;;13.32;7.65;;;;;;;3.90;74.96;101562.19;5066615;28;20111;-74
2022/03/13 02:32:49;;;;;;;13.52;7.68;;;;;;;3.91;75.12;101563.03;5056909;28;20017;-74
2022/03/13 02:35:17;;;;;;;13.85;6.88;;;;;;;3.96;75.04;101560.97;5061299;28;20040;-75
2022/03/13 02:37:42;;;;;;;13.65;7.25;;;;;;;3.98;75.62;101558.28;5057056;28;20071;-75
2022/03/13 02:40:15;;;;;;;14.80;8.13;;;;;;;3.97;75.80;101556.59;5057200;28;20063;-76
2022/03/13 02:42:41;;;;;;;10.10;7.47;;;;;;;3.88;75.75;101552.75;5042646;28;20044;-76
2022/03/13 02:45:06;;;;;;;12.15;6.82;;;;;;;3.92;75.35;101560.31;5062687;28;20056;-74
2022/03/13 02:47:32;;;;;;;14.80;8.32;;;;;;;3.95;75.64;101561.91;5060341;28;20033;-74
2022/03/13 02:49:57;;;;;;;24.90;7.18;;;;;;;3.87;75.94;101545.84;5060419;28;20036;-74
2022/03/13 02:52:22;;;;;;;13.80;7.95;;;;;;;4.00;75.44;101557.25;5027992;28;20036;-76
2022/03/13 02:54:48;;;;;;;18.08;7.60;;;;;;;4.00;76.70;101554.63;5059192;28;20028;-74
2022/03/13 02:57:14;;;;;;;10.85;7.30;;;;;;;3.78;76.46;101517.66;5058186;28;20021;-75
2022/03/13 02:59:40;;;;;;;11.55;6.22;;;;;;;3.99;76.38;101552.97;5059369;28;20107;-76
2022/03/13 03:02:05;;;;;;;16.45;7.93;;;;;;;3.97;76.80;101554.84;5058458;28;20067;-75
2022/03/13 03:04:31;;;;;;;12.65;7.38;;;;;;;3.96;76.60;101544.47;5063420;28;20027;-75
2022/03/13 03:07:04;;;;;;;14.93;8.05;;;;;;;3.97;77.20;101547.00;5061445;28;20036;-75
2022/03/13 03:09:31;;;;;;;18.92;8.15;;;;;;;3.98;77.25;101551.28;5060755;28;20024;-75
2022/03/13 03:12:04;;;;;;;10.98;6.57;;;;;;;4.00;78.10;101549.41;5060126;28;20128;-75
2022/03/13 03:14:30;;;;;;;14.65;7.85;;;;;;;4.04;76.90;101544.84;5063306;28;20025;-74
2022/03/13 03:16:55;;;;;;;14.48;7.65;;;;;;;4.04;77.80;101545.69;5062329;28;20170;-74
2022/03/13 03:19:21;;;;;;;13.45;7.60;;;;;;;4.02;78.24;101538.88;5060376;28;20529;-74
2022/03/13 03:21:47;;;;;;;13.35;8.70;;;;;;;3.99;77.86;101539.91;5056167;28;20041;-74
2022/03/13 03:24:16;;;;;;;12.90;7.63;;;;;;;3.99;78.25;101539.91;5058883;28;20130;-75
2022/03/13 03:26:41;;;;;;;14.20;6.97;;;;;;;3.95;78.73;101527.97;5057838;28;20477;-75
2022/03/13 03:29:07;;;;;;;15.15;8.27;;;;;;;4.02;78.17;101549.34;5063220;28;20033;-75
2022/03/13 03:31:32;;;;;;;14.27;8.00;;;;;;;4.02;78.62;101544.09;5062055;28;20021;-75
2022/03/13 03:33:58;;;;;;;12.52;7.35;;;;;;;3.88;78.50;101516.19;5061804;28;20027;-75
2022/03/13 03:36:23;;;;;;;12.32;7.60;;;;;;;4.00;78.16;101538.13;5062346;28;20396;-75
2022/03/13 03:38:48;;;;;;;13.90;8.07;;;;;;;3.98;77.93;101519.94;5059592;28;20024;-75
2022/03/13 03:41:14;;;;;;;13.27;8.15;;;;;;;4.10;77.55;101534.88;5054226;28;20370;-75
2022/03/13 03:43:39;;;;;;;12.40;7.10;;;;;;;4.13;77.57;101539.09;5059967;28;20048;-75
2022/03/13 03:46:05;;;;;;;11.88;7.78;;;;;;;3.95;77.51;101517.50;5060779;28;20090;-75
2022/03/13 03:48:31;;;;;;;12.48;8.07;;;;;;;4.04;77.41;101535.25;5060684;28;20067;-75
2022/03/13 03:50:56;;;;;;;13.25;7.85;;;;;;;4.00;78.58;101538.97;5060695;28;20072;-75
2022/03/13 03:53:21;;;;;;;11.13;6.80;;;;;;;3.92;78.05;101536.00;5064251;28;20036;-75
2022/03/13 03:55:47;;;;;;;15.60;8.27;;;;;;;3.94;77.89;101536.72;5057603;28;20380;-75
2022/03/13 03:58:13;;;;;;;14.32;7.97;;;;;;;3.96;77.76;101545.28;5063617;28;20044;-75
2022/03/13 04:00:39;;;;;;;14.63;7.05;;;;;;;3.97;78.16;101535.72;5060040;28;20039;-75
2022/03/13 04:03:05;;;;;;;10.55;6.72;;;;;;;4.02;78.27;101534.50;5059102;28;20032;-75
2022/03/13 04:05:30;;;;;;;16.75;8.40;;;;;;;4.02;78.15;101542.31;5059141;28;20383;-75
2022/03/13 04:07:55;;;;;;;13.20;7.60;;;;;;;3.95;78.10;101538.41;5061889;28;20532;-75
2022/03/13 04:10:21;;;;;;;12.40;7.90;;;;;;;3.78;78.54;101521.09;5055539;28;20036;-75
2022/03/13 04:12:46;;;;;;;17.90;8.38;;;;;;;3.67;78.89;101513.91;5059031;28;20021;-76
2022/03/13 04:15:11;;;;;;;13.70;8.82;;;;;;;3.76;79.26;101538.63;5058990;28;20047;-75
2022/03/13 04:17:37;;;;;;;12.75;8.27;;;;;;;3.66;80.20;101542.72;5060785;28;20104;-75
2022/03/13 04:20:03;;;;;;;13.52;7.75;;;;;;;3.62;80.91;101536.00;5057284;28;20037;-75
2022/03/13 04:22:29;;;;;;;14.90;8.20;;;;;;;3.55;80.99;101535.50;5060043;28;20028;-75
2022/03/13 04:24:54;;;;;;;15.38;8.07;;;;;;;3.52;80.45;101530.44;5060135;28;20052;-75
2022/03/13 04:27:20;;;;;;;12.90;7.45;;;;;;;3.48;81.11;101541.97;5059227;28;20031;-75
2022/03/13 04:29:45;;;;;;;16.65;8.82;;;;;;;3.42;80.52;101524.91;5059809;28;20036;-75
2022/03/13 04:32:11;;;;;;;13.48;8.13;;;;;;;3.27;80.59;101505.75;5057502;28;20033;-75
2022/03/13 04:34:36;;;;;;;16.60;8.27;;;;;;;3.35;80.91;101541.81;5042495;28;20071;-75
2022/03/13 04:37:02;;;;;;;11.98;7.50;;;;;;;3.28;80.71;101541.34;5057700;28;20386;-75
2022/03/13 04:39:28;;;;;;;13.40;8.75;;;;;;;3.24;80.53;101542.44;5060261;28;20033;-75
2022/03/13 04:41:54;;;;;;;14.05;7.10;;;;;;;3.09;79.70;101520.66;5055896;28;20075;-75
2022/03/13 04:44:21;;;;;;;11.60;6.00;;;;;;;3.08;79.91;101528.56;5061264;28;20028;-75
2022/03/13 04:46:47;;;;;;;10.77;6.43;;;;;;;3.14;80.41;101541.28;5057312;28;20063;-75
2022/03/13 04:49:12;;;;;;;10.15;6.93;;;;;;;3.12;80.05;101537.91;5059044;28;20570;-75
2022/03/13 04:51:39;;;;;;;13.57;7.45;;;;;;;3.05;79.60;101532.19;5058369;28;20067;-75
2022/03/13 04:54:06;;;;;;;14.63;7.78;;;;;;;3.09;78.86;101535.47;5022928;28;20465;-75
2022/03/13 04:56:32;;;;;;;15.10;8.25;;;;;;;3.02;78.63;101528.91;5057099;28;20017;-75
2022/03/13 04:58:58;;;;;;;12.75;7.25;;;;;;;3.08;79.27;101531.19;5060756;28;20040;-75
2022/03/13 05:01:23;;;;;;;12.57;6.72;;;;;;;3.09;78.60;101535.47;5056974;28;20043;-75
2022/03/13 05:03:49;;;;;;;14.07;7.40;;;;;;;3.10;78.55;101534.53;5059466;28;20103;-74
2022/03/13 05:06:14;;;;;;;16.27;7.65;;;;;;;3.09;78.30;101544.16;5059781;28;20066;-75
2022/03/13 05:08:40;;;;;;;13.05;7.15;;;;;;;3.04;77.70;101514.00;5057777;28;20107;-75
2022/03/13 05:11:06;;;;;;;12.57;6.63;;;;;;;3.12;78.17;101537.91;5051596;28;20158;-74
2022/03/13 05:13:33;;;;;;;13.70;6.93;;;;;;;3.13;77.88;101536.97;5059210;28;20413;-74
2022/03/13 05:15:58;;;;;;;13.75;7.25;;;;;;;3.16;77.53;101531.59;5057340;28;20606;-74
2022/03/13 05:18:24;;;;;;;11.32;6.95;;;;;;;3.19;77.45;101526.19;5054023;28;20033;-74
2022/03/13 05:20:49;;;;;;;10.50;6.63;;;;;;;3.25;77.00;101518.03;5059574;28;20036;-75
2022/03/13 05:23:15;;;;;;;12.20;7.53;;;;;;;3.27;76.37;101531.00;5060034;28;20456;-75
2022/03/13 05:25:41;;;;;;;15.57;8.07;;;;;;;3.24;76.01;101526.78;5058035;28;20435;-75
2022/03/13 05:28:08;;;;;;;11.02;6.93;;;;;;;3.21;76.55;101526.97;5058647;28;20059;-75
2022/03/13 05:30:34;;;;;;;10.95;6.75;;;;;;;3.16;76.54;101522.91;5057508;28;20461;-75
2022/03/13 05:33:00;;;;;;;11.63;7.15;;;;;;;3.12;75.86;101517.03;5060478;28;20028;-75
2022/03/13 05:35:26;;;;;;;15.57;6.88;;;;;;;3.11;75.63;101515.34;5060327;28;20029;-75
2022/03/13 05:37:51;;;;;;;11.10;6.55;;;;;;;3.16;75.94;101523.78;5058295;28;20078;-76
2022/03/13 05:40:19;;;;;;;13.05;6.75;;;;;;;3.10;75.11;101524.13;5064697;28;20106;-75
2022/03/13 05:42:49;;;;;;;16.08;7.05;;;;;;;3.10;75.40;101544.97;5060936;28;20076;-75
2022/03/13 05:45:16;;;;;;;11.35;7.18;;;;;;;3.04;75.06;101534.88;5062821;28;20061;-74
2022/03/13 05:47:47;;;;;;;13.60;7.18;;;;;;;2.96;74.11;101531.84;5062518;28;20033;-75
2022/03/13 05:50:14;;;;;;;11.57;6.55;;;;;;;2.96;75.10;101544.88;5060774;28;20433;-75
2022/03/13 05:52:41;;;;;;;8.30;5.65;;;;;;;2.88;74.44;101543.53;5062969;28;20092;-75
2022/03/13 05:55:07;;;;;;;11.45;5.43;;;;;;;2.82;74.23;101550.84;5058074;28;20461;-75
2022/03/13 05:57:34;;;;;;;12.13;6.72;;;;;;;2.81;73.91;101550.03;5060553;28;20021;-75
2022/03/13 05:59:59;;;;;;;11.07;6.57;;;;;;;2.81;73.70;101560.44;5060500;28;20132;-75
2022/03/13 06:02:25;;;;;;;12.27;7.00;;;;;;;2.80;72.84;101552.69;5059250;28;20541;-75
2022/03/13 06:04:52;;;;;;;12.98;6.82;;;;;;;2.75;72.88;101545.13;5061518;28;20025;-75
2022/03/13 06:07:18;;;;;;;12.15;6.03;;;;;;;2.74;73.15;101553.84;5064970;28;20025;-75
2022/03/13 06:09:44;;;;;;;11.65;6.88;;;;;;;2.68;72.77;101564.63;5057117;28;20123;-75
2022/03/13 06:12:09;;;;;;;11.57;6.65;;;;;;;2.70;73.33;101565.41;5063130;28;20060;-75
2022/03/13 06:14:35;;;;;;;11.88;7.15;;;;;;;2.59;72.98;101544.25;5058101;28;20028;-75
2022/03/13 06:17:00;;;;;;;14.30;5.65;;;;;;;2.70;73.06;101567.13;5044028;28;20033;-75
2022/03/13 06:19:26;;;;;;;12.65;6.07;;;;;;;2.65;72.65;101560.41;5061806;28;20029;-75
2022/03/13 06:21:51;;;;;;;9.43;5.72;;;;;;;2.74;72.42;101564.28;5057960;28;20455;-75
2022/03/13 06:24:18;;;;;;;6.90;4.75;;;;;;;2.76;73.10;101569.44;5061493;28;20056;-75
2022/03/13 06:26:44;;;;;;;11.13;6.40;;;;;;;2.79;73.23;101577.09;5057185;28;20112;-74
2022/03/13 06:29:09;;;;;;;11.80;7.20;;;;;;;2.84;72.87;101581.13;5059863;28;20107;-75
2022/03/13 06:31:35;;;;;;;12.00;6.57;;;;;;;2.73;72.90;101567.81;5065343;28;20024;-75
2022/03/13 06:34:01;;;;;;;11.93;6.05;;;;;;;2.82;73.64;101580.38;5061014;28;20090;-75
2022/03/13 06:36:27;;;;;;;11.25;6.70;;;;;;;2.64;73.60;101563.94;5057640;28;20036;-75
2022/03/13 06:38:53;;;;;;;9.77;5.53;;;;;;;2.76;72.62;101583.28;5037122;28;20040;-75
2022/03/13 06:41:19;;;;;;;10.02;5.95;;;;;;;2.78;73.36;101581.44;5054578;28;20121;-74
2022/03/13 06:43:45;;;;;;;11.48;6.53;;;;;;;2.84;72.61;101586.34;5049215;28;20441;-74
2022/03/13 06:46:11;;;;;;;12.60;7.55;;;;;;;2.88;71.82;101576.59;5050876;28;20083;-74
2022/03/13 06:48:36;;;;;;;10.52;6.28;;;;;;;2.91;72.35;101591.22;5046157;28;20554;-75
2022/03/13 06:51:02;;;;;;;11.38;5.78;;;;;;;2.92;72.26;101593.75;5054768;28;20520;-75
2022/03/13 06:53:28;;;;;;;10.98;5.57;;;;;;;2.95;72.14;101587.53;5035372;28;20385;-75
2022/03/13 06:55:54;;;;;;;10.10;6.13;;;;;;;2.96;71.31;101589.22;5052787;28;20036;-75
2022/03/13 06:58:19;;;;;;;7.88;5.35;;;;;;;3.03;71.70;101587.97;5049905;28;20603;-75
2022/03/13 07:00:45;;;;;;;10.00;6.10;;;;;;;3.09;71.06;101590.22;5050749;28;20036;-75
2022/03/13 07:03:11;;;;;;;9.73;5.25;;;;;;;3.11;70.80;101587.53;5054406;28;20884;-75
2022/03/13 07:05:37;;;;;;;12.02;5.93;;;;;;;3.08;70.99;101586.78;5050427;28;20028;-75
2022/03/13 07:08:02;;;;;;;9.98;6.05;;;;;;;3.08;70.85;101572.91;5051227;28;20115;-75
2022/03/13 07:10:28;;;;;;;7.68;5.55;;;;;;;3.08;70.59;101570.31;5047747;28;20040;-75
2022/03/13 07:12:57;;;;;;;8.27;5.63;;;;;;;3.16;70.25;101581.16;5046907;28;20404;-74
2022/03/13 07:15:23;;;;;;;10.02;5.97;;;;;;;3.09;69.76;101574.56;5031053;28;20040;-75
2022/03/13 07:17:48;;;;;;;10.60;5.47;;;;;;;3.20;69.98;101587.03;5030187;28;20040;-74
2022/03/13 07:20:15;;;;;;;12.23;6.35;;;;;;;3.15;69.20;101586.44;5055455;28;20052;-74
2022/03/13 07:22:42;;;;;;;8.70;5.82;;;;;;;3.18;70.11;101579.31;5053089;28;20396;-74
2022/03/13 07:25:08;;;;;;;10.93;6.40;;;;;;;3.34;69.72;101589.72;5054065;28;20061;-75
2022/03/13 07:27:34;;;;;;;10.75;6.57;;;;;;;3.39;69.55;101595.53;5048943;28;20040;-75
2022/03/13 07:29:59;;;;;;;8.98;5.72;;;;;;;3.45;69.69;101595.19;5033720;28;20025;-74
2022/03/13 07:32:24;;;;;;;7.45;4.72;;;;;;;3.39;69.83;101584.25;5049680;28;20043;-74
2022/03/13 07:34:50;;;;;;;13.68;6.30;;;;;;;3.42;69.79;101584.06;5046757;28;20090;-75
2022/03/13 07:37:15;;;;;;;11.45;6.40;;;;;;;3.59;70.38;101599.63;5051137;28;20040;-74
2022/03/13 07:39:41;;;;;;;9.07;5.72;;;;;;;3.54;69.48;101579.97;5053255;28;20158;-74
2022/03/13 07:42:09;;;;;;;11.80;6.45;;;;;;;3.71;69.97;101592.88;5048782;28;20056;-74
2022/03/13 07:44:35;;;;;;;9.50;6.05;;;;;;;3.75;70.05;101607.47;5049995;28;20036;-76
2022/03/13 07:47:00;;;;;;;10.13;6.00;;;;;;;3.84;69.39;101596.47;5053748;28;20039;-76
2022/03/13 07:49:26;;;;;;;11.65;6.47;;;;;;;3.95;70.04;101601.09;5052444;28;20131;-76
2022/03/13 07:51:51;;;;;;;10.10;6.43;;;;;;;3.94;69.46;101594.16;5049495;28;20093;-75
2022/03/13 07:54:20;;;;;;;10.90;7.00;;;;;;;3.92;69.91;101601.28;5046262;28;20083;-74
2022/03/13 07:56:46;;;;;;;11.52;7.20;;;;;;;4.02;69.00;101597.19;5025640;28;20025;-74
2022/03/13 07:59:12;;;;;;;8.55;6.00;;;;;;;4.06;69.94;101605.69;5051712;28;20016;-75
2022/03/13 08:01:37;;;;;;;9.57;5.55;;;;;;;4.23;69.85;101599.50;5051446;28;20037;-76
2022/03/13 08:04:05;;;;;;;8.68;5.68;;;;;;;4.32;69.53;101593.72;5052453;28;20056;-76
2022/03/13 08:06:35;;;;;;;9.70;6.45;;;;;;;4.43;68.70;101596.53;5049420;28;20059;-75
2022/03/13 08:09:03;;;;;;;11.63;6.23;;;;;;;4.59;69.08;101603.44;5047680;28;20063;-75
2022/03/13 08:11:28;;;;;;;8.30;5.43;;;;;;;4.75;68.28;101604.19;5049105;28;20104;-74
2022/03/13 08:13:54;;;;;;;11.27;7.25;;;;;;;4.84;68.24;101597.56;5048560;28;20033;-74
2022/03/13 08:16:19;;;;;;;10.35;6.05;;;;;;;4.92;67.77;101571.75;5047337;28;20476;-75
2022/03/13 08:18:45;;;;;;;9.45;5.35;;;;;;;5.21;67.16;101587.44;5045011;28;20533;-74
2022/03/13 08:21:10;;;;;;;10.95;6.18;;;;;;;5.46;67.00;101600.59;5060031;28;20032;-74
2022/03/13 08:23:36;;;;;;;8.45;5.82;;;;;;;5.78;64.74;101598.53;5051969;28;20099;-74
2022/03/13 08:26:01;;;;;;;17.83;6.53;;;;;;;6.14;64.60;101598.84;5057460;28;20028;-73
2022/03/13 08:28:27;;;;;;;11.68;6.95;;;;;;;6.40;63.31;101604.94;5050561;28;20042;-75
2022/03/13 08:30:52;;;;;;;10.00;6.75;;;;;;;6.26;63.00;101592.78;5052801;28;20044;-74
2022/03/13 08:33:17;;;;;;;8.45;5.47;;;;;;;6.17;62.77;101601.28;5035876;28;20423;-74
2022/03/13 08:35:43;;;;;;;12.98;7.05;;;;;;;6.23;63.27;101602.63;5047647;28;20053;-74
2022/03/13 08:38:08;;;;;;;13.27;6.47;;;;;;;6.49;61.80;101606.97;5025877;28;20033;-75
2022/03/13 08:40:34;;;;;;;9.52;6.18;;;;;;;6.52;61.87;101604.13;5053391;28;20033;-75
2022/03/13 08:42:59;;;;;;;10.70;6.80;;;;;;;6.73;61.20;101601.81;5059064;28;20036;-74
2022/03/13 08:45:25;;;;;;;10.18;6.72;;;;;;;6.69;61.24;101608.22;5052475;28;20104;-75
2022/03/13 08:47:50;;;;;;;10.50;6.80;;;;;;;6.76;61.52;101600.75;5044126;28;20060;-74
2022/03/13 08:50:16;;;;;;;12.27;6.97;;;;;;;6.70;61.44;101606.41;5045325;28;20099;-74
2022/03/13 08:52:42;;;;;;;10.45;6.60;;;;;;;7.00;60.99;101606.06;5046457;28;20020;-74
2022/03/13 08:55:13;;;;;;;10.60;6.93;;;;;;;6.97;60.49;101604.50;5047059;28;20040;-75
2022/03/13 08:57:41;;;;;;;9.68;6.15;;;;;;;7.05;60.65;101601.31;5045413;28;20039;-74
2022/03/13 09:00:08;;;;;;;13.00;6.63;;;;;;;7.13;60.43;101609.50;5051882;28;20056;-74
2022/03/13 09:02:34;;;;;;;8.98;6.25;;;;;;;7.05;60.76;101595.25;5051734;28;20090;-74
2022/03/13 09:04:59;;;;;;;10.85;6.88;;;;;;;7.18;60.82;101606.53;5046749;28;20049;-74
2022/03/13 09:07:25;;;;;;;13.48;6.78;;;;;;;7.28;60.54;101607.56;5051535;28;20031;-74
2022/03/13 09:09:50;;;;;;;8.93;6.45;;;;;;;7.13;61.29;101564.88;5049083;28;20446;-74
2022/03/13 09:12:17;;;;;;;9.35;6.55;;;;;;;7.57;60.63;101604.63;5032918;28;20107;-74
2022/03/13 09:14:42;;;;;;;10.95;6.43;;;;;;;8.51;59.70;101597.66;5053283;28;20036;-74
2022/03/13 09:17:08;;;;;;;11.60;7.03;;;;;;;9.37;56.86;101607.53;5043487;28;20049;-75
2022/03/13 09:19:34;;;;;;;11.57;7.60;;;;;;;10.19;55.56;101609.59;5046084;28;20029;-75
2022/03/13 09:21:59;;;;;;;11.82;7.40;;;;;;;11.31;52.96;101610.53;5043785;28;20021;-74
2022/03/13 09:24:24;;;;;;;10.15;6.43;;;;;;;11.08;50.95;101614.34;5045812;28;20056;-74
2022/03/13 09:26:50;;;;;;;13.80;7.93;;;;;;;10.59;51.05;101615.97;5048561;28;20067;-75
2022/03/13 09:29:15;;;;;;;9.80;7.25;;;;;;;10.57;51.62;101610.81;5053789;28;20433;-75
2022/03/13 09:31:41;;;;;;;12.23;7.47;;;;;;;10.91;51.83;101605.28;5046173;28;20036;-76
2022/03/13 09:34:06;;;;;;;12.15;7.85;;;;;;;10.82;51.03;101609.56;5045362;28;20581;-75
2022/03/13 09:36:37;;;;;;;10.45;7.20;;;;;;;11.16;51.58;101605.78;5042993;28;20033;-75
2022/03/13 09:39:07;;;;;;;11.90;7.07;;;;;;;11.30;50.37;101610.66;5042792;28;20032;-74
2022/03/13 09:41:32;;;;;;;11.85;7.93;;;;;;;11.80;49.59;101609.72;5046957;28;20044;-75
2022/03/13 09:43:58;;;;;;;11.25;7.32;;;;;;;12.63;47.68;101591.50;5046585;28;20079;-75
2022/03/13 09:46:23;;;;;;;9.50;7.55;;;;;;;12.06;48.58;101605.59;5046367;28;20521;-75
2022/03/13 09:48:52;;;;;;;11.30;7.55;;;;;;;12.39;47.87;101592.00;5043778;28;20436;-75
2022/03/13 09:51:17;;;;;;;14.48;7.70;;;;;;;12.11;48.46;101584.00;5048049;28;20036;-75
2022/03/13 09:53:43;;;;;;;10.38;7.50;;;;;;;12.27;48.09;101589.53;5044414;28;20032;-75
2022/03/13 09:56:08;;;;;;;11.70;7.82;;;;;;;12.70;46.22;101589.97;5045237;28;20405;-75
2022/03/13 09:58:34;;;;;;;12.63;8.02;;;;;;;12.85;46.82;101593.81;5045321;28;20087;-75
2022/03/13 10:01:00;;;;;;;10.48;8.23;;;;;;;14.30;44.89;101590.19;5046329;28;20063;-75
2022/03/13 10:03:25;;;;;;;11.00;8.23;;;;;;;13.92;44.45;101577.16;5048330;28;20048;-75
2022/03/13 10:05:54;;;;;;;10.63;7.45;;;;;;;15.17;42.51;101565.19;5045712;28;20028;-75
2022/03/13 10:08:20;;;;;;;11.45;8.32;;;;;;;15.32;42.37;101578.72;5050789;28;20051;-75
2022/03/13 10:10:47;;;;;;;11.15;7.88;;;;;;;15.13;42.09;101577.16;5051190;28;20056;-76
2022/03/13 10:13:15;;;;;;;13.18;9.02;;;;;;;15.17;41.42;101565.19;5052429;28;20052;-75
2022/03/13 10:15:46;;;;;;;10.77;7.70;;;;;;;15.47;41.78;101570.91;5050668;28;20413;-75
2022/03/13 10:18:17;;;;;;;10.93;8.38;;;;;;;15.27;41.83;101561.59;5054663;28;20090;-75
2022/03/13 10:20:44;;;;;;;9.73;7.80;;;;;;;15.14;40.72;101568.19;5046062;28;20029;-75
2022/03/13 10:23:11;;;;;;;12.80;8.35;;;;;;;15.56;40.35;101561.94;5037557;28;20021;-75
2022/03/13 10:25:41;;;;;;;11.02;8.48;;;;;;;17.06;39.28;101548.97;5051039;28;20052;-75
2022/03/13 10:28:24;;;;;;;11.13;8.55;;;;;;;17.35;37.03;101536.78;5047138;28;20147;-75
2022/03/13 10:30:58;;;;;;;12.18;8.45;;;;;;;17.30;37.80;101533.84;5047850;28;20025;-75
2022/03/13 10:33:25;;;;;;;15.55;8.75;;;;;;;17.05;37.96;101536.66;5048055;28;20029;-76
2022/03/13 10:35:52;;;;;;;12.70;8.55;;;;;;;15.78;38.65;101522.41;5049456;28;20025;-76
2022/03/13 10:38:23;;;;;;;10.38;8.05;;;;;;;15.83;39.19;101541.38;5060459;28;20119;-75
2022/03/13 10:40:57;;;;;;;12.30;8.38;;;;;;;15.15;40.23;101529.13;5047799;28;20551;-75
2022/03/13 10:43:26;;;;;;;11.70;8.43;;;;;;;15.72;39.17;101528.38;5051847;28;20029;-75
2022/03/13 10:45:53;;;;;;;9.82;7.70;;;;;;;16.13;39.97;101537.16;5051903;28;20040;-75
2022/03/13 10:48:33;;;;;;;10.38;8.20;;;;;;;16.61;39.75;101537.16;5060055;28;20469;-75
2022/03/13 10:51:01;;;;;;;12.43;8.73;;;;;;;16.56;38.82;101537.69;5049941;28;20028;-75
2022/03/13 10:53:28;;;;;;;10.63;8.05;;;;;;;16.24;39.59;101533.28;5052155;28;20056;-75
2022/03/13 10:56:04;;;;;;;11.48;9.13;;;;;;;16.20;40.25;101531.97;5050810;28;20396;-75
2022/03/13 10:58:31;;;;;;;14.93;8.90;;;;;;;16.62;39.72;101536.19;5055690;28;20427;-75
2022/03/13 11:01:07;;;;;;;10.52;8.32;;;;;;;16.84;39.50;101527.44;5048111;28;20071;-75
2022/03/13 11:03:34;;;;;;;12.35;8.93;;;;;;;15.99;40.08;101509.38;5058307;28;20039;-75
2022/03/13 11:06:01;;;;;;;12.43;8.38;;;;;;;16.23;39.53;101531.66;5054866;28;20035;-75
2022/03/13 11:08:26;;;;;;;10.63;8.38;;;;;;;16.07;40.08;101521.88;5047153;28;20041;-75
2022/03/13 11:10:53;;;;;;;11.35;8.98;;;;;;;15.73;40.66;101530.06;5052770;28;20746;-75
2022/03/13 11:13:21;;;;;;;12.15;8.63;;;;;;;15.84;40.99;101517.22;5065730;28;20082;-76
2022/03/13 11:15:48;;;;;;;13.00;8.68;;;;;;;15.83;40.80;101509.44;5048849;28;20513;-76
2022/03/13 11:18:17;;;;;;;13.13;8.45;;;;;;;15.78;41.15;101512.56;5054133;28;20028;-76
2022/03/13 11:20:43;;;;;;;18.05;8.77;;;;;;;15.08;44.93;101510.34;5055177;28;20052;-75